createdAt,value
2022-09-23T00:00:16.013Z,1669.1337792642141
2022-09-23T00:09:34.755Z,1671.2909698996655
2022-09-23T00:16:02.113Z,1622.0869565217392
2022-09-23T00:22:29.711Z,1712.979933110368
2022-09-23T00:29:06.584Z,1689.4715719063545
2022-09-23T00:35:39.045Z,1686.1505016722408
2022-09-23T00:42:06.573Z,1676.1371237458195
2022-09-23T00:48:34.054Z,1688.5384615384614
2022-09-23T00:55:01.674Z,1672.3344481605352
2022-09-23T01:01:29.513Z,1665.7926421404682
2022-09-23T01:07:56.899Z,1621.0334448160536
2022-09-23T01:14:24.286Z,1661.7591973244148
2022-09-23T01:34:01.394Z,1658.7491638795987
2022-09-23T01:40:28.743Z,1657.685618729097
2022-09-23T01:47:32.572Z,1637.5986622073578
2022-09-23T01:58:35.762Z,1633.2642140468226
2022-09-23T02:05:03.206Z,1636.8060200668897
2022-09-23T02:11:30.684Z,1659.1003344481605
2022-09-23T02:17:57.804Z,1823.408026755853
2022-09-23T02:33:48.900Z,1764.180602006689
2022-09-23T02:41:59.975Z,1770.4615384615386
2022-09-23T02:48:27.804Z,1730.0066889632108
2022-09-23T02:54:55.583Z,1708.9665551839464
2022-09-23T03:01:23.220Z,1667.7792642140469
2022-09-23T03:07:50.872Z,1625.2173913043478
2022-09-23T03:14:18.255Z,1593.0100334448161
2022-09-23T03:20:45.633Z,1575.4715719063545
2022-09-23T03:28:04.191Z,1623.742474916388
2022-09-23T03:34:32.117Z,1603.9966555183946
2022-09-23T03:40:59.237Z,1616.8795986622074
2022-09-23T03:49:13.886Z,1576.5351170568563
2022-09-23T03:55:41.591Z,1530.0401337792641
2022-09-23T04:02:09.125Z,1564.9565217391305
2022-09-23T04:08:36.198Z,1559.628762541806
2022-09-23T04:15:03.532Z,1521.5117056856188
2022-09-23T04:21:30.973Z,1551.6622073578596
2022-09-23T04:28:25.580Z,1572.742474916388
2022-09-23T04:41:00.776Z,1666.5551839464883
2022-09-23T04:47:28.299Z,1669.14381270903
2022-09-23T04:53:56.647Z,1706.6889632107022
2022-09-23T05:00:37.944Z,1638.1003344481605
2022-09-23T05:07:12.395Z,1631.0066889632108
2022-09-23T05:13:45.886Z,1606.2341137123747
2022-09-23T05:25:52.079Z,1639.6354515050168
2022-09-23T05:32:29.181Z,1611.8327759197325
2022-09-23T05:38:59.568Z,1582.484949832776
2022-09-23T05:50:47.998Z,1701.7023411371238
2022-09-23T05:57:29.423Z,1758.3511705685619
2022-09-23T06:04:10.138Z,1606.9163879598661
2022-09-23T06:10:54.584Z,1605.732441471572
2022-09-23T06:17:26.265Z,1606.2642140468226
2022-09-23T06:24:31.613Z,1580.2976588628762
2022-09-23T06:31:51.021Z,1635.9030100334448
2022-09-23T06:38:18.883Z,1658.448160535117
2022-09-23T06:51:00.202Z,1623.3210702341137
2022-09-23T06:57:52.566Z,1632.7926421404682
2022-09-23T07:04:20.060Z,1573.5752508361204
2022-09-23T07:13:51.830Z,1518.6521739130435
2022-09-23T07:20:18.817Z,1524.361204013378
2022-09-23T07:26:52.917Z,1474.1839464882944
2022-09-23T07:33:58.997Z,1421.6889632107022
2022-09-23T07:40:26.930Z,1429.4247491638796
2022-09-23T07:46:54.180Z,1382.8595317725753
2022-09-23T07:57:23.369Z,1337.9698996655518
2022-09-23T08:06:10.158Z,1322.468227424749
2022-09-23T08:16:51.954Z,1261.896321070234
2022-09-23T08:27:10.602Z,1178.9498327759197
2022-09-23T08:33:38.326Z,1271.448160535117
2022-09-23T08:40:05.757Z,1193.227424749164
2022-09-23T08:47:48.830Z,1187.3879598662206
2022-09-23T08:54:16.701Z,1146.0802675585285
2022-09-23T09:00:44.870Z,1114.1337792642141
2022-09-23T09:07:34.684Z,1062.6421404682274
2022-09-23T09:14:03.610Z,1052.9197324414715
2022-09-23T09:26:57.330Z,1005.551839464883
2022-09-23T09:35:42.271Z,925.314381270903
2022-09-23T09:42:10.497Z,952.3244147157191
2022-09-23T10:08:54.265Z,921.742474916388
2022-09-23T10:20:11.429Z,961.695652173913
2022-09-23T10:26:46.012Z,944.5785953177258
2022-09-23T10:33:13.753Z,935.9297658862877
2022-09-23T10:39:40.738Z,986.5886287625418
2022-09-23T10:46:08.727Z,1038.9732441471572
2022-09-23T10:54:57.642Z,1056.3411371237457
2022-09-23T11:01:25.281Z,995.4581939799331
2022-09-23T11:07:52.761Z,972.9832775919732
2022-09-23T11:14:20.075Z,1018.2341137123746
2022-09-23T11:20:46.973Z,1019.9197324414715
2022-09-23T11:33:28.894Z,1035.160535117057
2022-09-23T11:39:55.925Z,957.6421404682275
2022-09-23T11:46:23.923Z,984.8628762541806
2022-09-23T11:52:51.039Z,1213.123745819398
2022-09-23T12:02:32.924Z,1183.2240802675585
2022-09-23T12:09:00.422Z,1157.6789297658863
2022-09-23T12:15:28.212Z,1252.3545150501673
2022-09-23T12:21:55.885Z,1198.675585284281
2022-09-23T12:28:29.400Z,1152.4214046822742
2022-09-23T12:34:57.647Z,1151.5384615384614
2022-09-23T12:41:25.825Z,1101.9732441471572
2022-09-23T12:47:53.229Z,1163.0267558528428
2022-09-23T12:54:21.473Z,1107.2107023411372
2022-09-23T13:00:48.970Z,1170.2508361204013
2022-09-23T13:07:24.312Z,1293.1204013377926
2022-09-23T13:18:39.493Z,1239.4214046822742
2022-09-23T13:25:51.723Z,1242.2408026755852
2022-09-23T13:32:19.660Z,1090.8160535117056
2022-09-23T13:38:47.175Z,1111.8461538461538
2022-09-23T13:45:15.195Z,1158.1003344481605
2022-09-23T13:51:42.526Z,1078.7257525083612
2022-09-23T13:58:10.534Z,1061.6889632107022
2022-09-23T14:04:38.260Z,978.0301003344482
2022-09-23T14:11:05.197Z,995.0969899665552
2022-09-23T14:17:34.676Z,1056.551839464883
2022-09-23T14:24:11.236Z,971.5384615384615
2022-09-23T14:35:49.840Z,996.3210702341137
2022-09-23T14:42:19.157Z,1027.5953177257525
2022-09-23T14:48:46.938Z,1021.3745819397993
2022-09-23T14:55:14.415Z,986.0267558528428
2022-09-23T15:01:41.563Z,1094.0167224080267
2022-09-23T15:09:41.780Z,1177.3946488294314
2022-09-23T15:21:08.269Z,1243.8862876254182
2022-09-23T15:28:02.767Z,1328.247491638796
2022-09-23T15:34:32.981Z,1368.5819397993312
2022-09-23T15:41:00.824Z,1456.314381270903
2022-09-23T15:47:28.265Z,1512.8829431438128
2022-09-23T15:53:57.485Z,1631.6688963210702
2022-09-23T16:00:25.358Z,1622.1872909698998
2022-09-23T16:06:53.269Z,1676.0969899665552
2022-09-23T16:13:21.388Z,2024.6989966555184
2022-09-23T16:19:48.410Z,2351.367892976589
2022-09-23T16:26:23.810Z,3031.936454849498
2022-09-23T16:32:51.032Z,3409.7959866220735
2022-09-23T16:42:04.336Z,3288.2709030100336
2022-09-23T16:49:36.913Z,3254.438127090301
2022-09-23T16:56:04.168Z,2854.3244147157193
2022-09-23T17:02:34.666Z,2744.3779264214045
2022-09-23T17:09:02.082Z,2361.2608695652175
2022-09-23T17:15:29.705Z,2461.9665551839466
2022-09-23T17:21:56.814Z,2378.8996655518395
2022-09-23T17:35:34.189Z,2286.872909698997
2022-09-23T17:42:02.012Z,2272.294314381271
2022-09-23T17:48:29.757Z,2196.7324414715717
2022-09-23T17:58:24.434Z,2182.8361204013377
2022-09-23T18:04:51.792Z,2371.4347826086955
2022-09-23T18:11:19.951Z,2604.0702341137126
2022-09-23T18:17:48.190Z,2693.61872909699
2022-09-23T18:25:22.676Z,2956.705685618729
2022-09-23T18:33:15.597Z,3482.3478260869565
2022-09-23T18:43:12.974Z,3617.2675585284283
2022-09-23T18:49:40.515Z,3740.0267558528426
2022-09-23T18:56:11.649Z,4033.5652173913045
2022-09-23T19:05:14.074Z,4081.8060200668897
2022-09-23T19:11:41.887Z,4237.876254180602
2022-09-23T19:18:09.490Z,4430.418060200669
2022-09-23T19:32:10.754Z,5113.1438127090305
2022-09-23T19:38:37.507Z,5317.053511705685
2022-09-23T19:48:57.482Z,4922.698996655518
2022-09-23T19:55:25.589Z,4869.782608695652
2022-09-23T20:13:23.982Z,4468.665551839465
2022-09-23T20:22:32.237Z,4099.364548494983
2022-09-23T20:29:14.566Z,3962.4682274247493
2022-09-23T20:36:44.834Z,3763.4046822742475
2022-09-23T20:43:12.472Z,3461.1973244147157
2022-09-23T20:49:56.837Z,3482.127090301003
2022-09-23T20:56:43.561Z,3383.8595317725753
2022-09-23T21:08:50.393Z,3462.43143812709
2022-09-23T21:15:17.701Z,3655.2541806020067
2022-09-23T21:21:44.616Z,3734.438127090301
2022-09-23T21:28:16.413Z,3862.9966555183946
2022-09-23T21:34:43.645Z,3996.0702341137126
2022-09-23T21:41:11.808Z,4065.8628762541807
2022-09-23T21:52:03.426Z,4061.1571906354516
2022-09-23T22:02:29.243Z,3965.819397993311
2022-09-23T22:08:56.398Z,3950.61872909699
2022-09-23T22:15:23.805Z,3790.2040133779265
2022-09-23T22:21:51.193Z,3854.0066889632108
2022-09-23T22:32:38.545Z,3898.334448160535
2022-09-23T22:39:05.607Z,4007.488294314381
2022-09-23T22:50:26.031Z,4006.294314381271
2022-09-23T23:01:00.885Z,4107.6822742474915
2022-09-23T23:07:28.489Z,4109.418060200669
2022-09-23T23:13:56.416Z,4157.297658862876
2022-09-23T23:20:24.581Z,4261.09364548495
2022-09-23T23:26:59.025Z,4348.153846153846
2022-09-23T23:39:27.064Z,4531.52508361204
2022-09-23T23:45:54.386Z,4493.297658862876
2022-09-23T23:55:25.004Z,4611.180602006689
